Time;durP1;ratioP1;P1;durP2;ratioP2;P2;SDS_P1;SDS_P2;PMS_P1;PMS_P2;Temp;Humidity;BMP_temperature;BMP_pressure;BME280_temperature;BME280_humidity;BME280_pressure;Samples;Min_cycle;Max_cycle;Signal;HPM_P1;HPM_P2
2021/03/25 00:00:31;;;;;;;58.67;33.33;;;6.90;99.90;;;;;;5034879;28;20244;-46
2021/03/25 00:02:58;;;;;;;63.90;34.20;;;6.80;99.90;;;;;;5038678;28;20191;-47
2021/03/25 00:05:26;;;;;;;58.60;33.50;;;6.80;99.90;;;;;;5033494;28;20178;-53
2021/03/25 00:07:52;;;;;;;58.67;31.70;;;6.80;99.90;;;;;;5040404;28;20218;-47
2021/03/25 00:10:32;;;;;;;58.73;34.13;;;6.80;99.90;;;;;;5053965;28;20198;-54
2021/03/25 00:12:58;;;;;;;59.33;34.27;;;6.70;99.90;;;;;;5057767;28;20206;-50
2021/03/25 00:15:25;;;;;;;62.60;33.93;;;6.60;99.90;;;;;;5041540;28;20229;-51
2021/03/25 00:17:51;;;;;;;66.90;34.10;;;6.60;99.90;;;;;;5055466;28;20246;-51
2021/03/25 00:20:17;;;;;;;69.03;35.93;;;6.50;99.90;;;;;;5067055;28;20179;-52
2021/03/25 00:22:43;;;;;;;59.33;33.70;;;6.50;99.90;;;;;;5066342;28;20240;-48
2021/03/25 00:25:14;;;;;;;60.93;33.23;;;6.50;99.90;;;;;;5066084;28;20273;-50
2021/03/25 00:27:40;;;;;;;61.10;33.47;;;6.40;99.90;;;;;;5063166;28;20963;-49
2021/03/25 00:30:07;;;;;;;59.37;33.27;;;6.40;99.90;;;;;;5065907;28;20315;-46
2021/03/25 00:32:33;;;;;;;68.03;35.73;;;6.30;99.90;;;;;;5039611;28;20189;-49
2021/03/25 00:34:59;;;;;;;55.20;33.03;;;6.30;99.90;;;;;;5068986;28;20221;-50
2021/03/25 00:37:25;;;;;;;68.57;35.37;;;6.10;99.90;;;;;;5064618;28;20731;-50
2021/03/25 00:39:50;;;;;;;59.97;34.97;;;6.10;99.90;;;;;;5064941;28;20656;-46
2021/03/25 00:42:16;;;;;;;67.00;35.00;;;6.00;99.90;;;;;;5057088;28;20233;-52
2021/03/25 00:44:41;;;;;;;63.17;35.87;;;6.00;99.90;;;;;;5062552;28;20446;-51
2021/03/25 00:47:07;;;;;;;61.27;33.70;;;6.00;99.90;;;;;;5047798;28;20210;-47
2021/03/25 00:49:34;;;;;;;60.20;33.03;;;6.00;99.90;;;;;;5049385;28;20195;-49
2021/03/25 00:52:00;;;;;;;59.30;32.80;;;6.00;99.90;;;;;;5045505;28;20175;-48
2021/03/25 00:54:26;;;;;;;63.50;34.23;;;5.90;99.90;;;;;;5042430;28;20177;-53
2021/03/25 00:56:51;;;;;;;60.13;33.43;;;5.90;99.90;;;;;;5046804;28;20245;-49
2021/03/25 00:59:17;;;;;;;60.73;33.60;;;5.90;99.90;;;;;;5046563;28;20199;-52
2021/03/25 01:01:43;;;;;;;67.77;33.67;;;5.80;99.90;;;;;;5044376;28;20165;-51
2021/03/25 01:04:09;;;;;;;55.50;32.40;;;5.80;99.90;;;;;;5038548;28;20184;-51
2021/03/25 01:06:34;;;;;;;61.00;33.63;;;5.70;99.90;;;;;;5044813;28;20925;-47
2021/03/25 01:09:08;;;;;;;60.60;32.37;;;5.70;99.90;;;;;;5045201;28;20311;-48
2021/03/25 01:11:34;;;;;;;60.63;32.73;;;5.60;99.90;;;;;;5051610;28;20179;-50
2021/03/25 01:14:05;;;;;;;62.13;33.37;;;5.60;99.90;;;;;;5058641;28;20166;-47
2021/03/25 01:16:40;;;;;;;62.67;34.03;;;5.60;99.90;;;;;;5063101;28;20788;-51
2021/03/25 01:19:10;;;;;;;59.53;31.87;;;5.60;99.90;;;;;;5046886;28;20567;-52
2021/03/25 01:21:37;;;;;;;61.27;33.17;;;5.60;99.90;;;;;;5050796;28;20196;-51
2021/03/25 01:24:04;;;;;;;68.40;35.63;;;5.50;99.90;;;;;;5046543;28;20202;-51
2021/03/25 01:26:29;;;;;;;65.00;33.97;;;5.40;99.90;;;;;;5042096;28;20270;-48
2021/03/25 01:29:00;;;;;;;57.23;32.07;;;5.30;99.90;;;;;;5055950;28;20293;-53
2021/03/25 01:31:31;;;;;;;59.53;31.40;;;5.30;99.90;;;;;;5060846;28;20172;-53
2021/03/25 01:34:00;;;;;;;54.53;30.33;;;5.30;99.90;;;;;;5067075;28;20182;-55
2021/03/25 01:36:26;;;;;;;60.23;32.27;;;5.30;99.90;;;;;;5039674;28;20277;-51
2021/03/25 01:38:52;;;;;;;63.53;33.13;;;5.40;99.90;;;;;;5048475;28;20200;-50
2021/03/25 01:41:18;;;;;;;63.50;34.43;;;5.30;99.90;;;;;;5054796;28;20239;-52
2021/03/25 01:43:45;;;;;;;55.50;30.23;;;5.30;99.90;;;;;;5064682;28;20175;-54
2021/03/25 01:46:39;;;;;;;61.57;32.03;;;5.30;99.90;;;;;;5066294;28;20240;-52
2021/03/25 01:49:12;;;;;;;57.23;31.03;;;5.30;99.90;;;;;;5065591;28;20222;-53
2021/03/25 01:52:18;;;;;;;62.67;32.73;;;5.30;99.90;;;;;;5044212;28;20306;-50
2021/03/25 01:54:51;;;;;;;63.47;33.07;;;5.30;99.90;;;;;;5063878;28;20240;-50
2021/03/25 01:57:28;;;;;;;64.53;33.30;;;5.30;99.90;;;;;;5064207;28;20165;-50
2021/03/25 02:00:12;;;;;;;65.50;34.53;;;5.20;99.90;;;;;;5064534;28;20194;-54
2021/03/25 02:03:26;;;;;;;66.20;32.70;;;5.20;99.90;;;;;;5065053;28;20250;-51
2021/03/25 02:06:11;;;;;;;60.80;33.57;;;5.20;99.90;;;;;;5044023;28;20598;-51
2021/03/25 02:09:14;;;;;;;66.80;35.13;;;5.20;99.90;;;;;;5045140;28;20885;-52
2021/03/25 02:12:02;;;;;;;64.27;34.40;;;5.20;99.90;;;;;;5054771;28;20166;-50
2021/03/25 02:14:33;;;;;;;79.50;36.60;;;5.20;99.90;;;;;;5039595;28;20812;-49
2021/03/25 02:17:08;;;;;;;69.50;35.30;;;5.30;99.90;;;;;;5043851;28;20656;-53
2021/03/25 02:19:45;;;;;;;62.60;34.67;;;5.30;99.90;;;;;;5040815;28;20408;-50
2021/03/25 02:22:34;;;;;;;73.00;35.50;;;5.30;99.90;;;;;;5042157;28;20692;-52
2021/03/25 02:25:20;;;;;;;72.03;35.57;;;5.40;99.90;;;;;;5064612;28;20693;-54
2021/03/25 02:28:30;;;;;;;68.67;34.40;;;5.40;99.90;;;;;;5064815;28;20198;-51
2021/03/25 02:31:17;;;;;;;65.67;34.27;;;5.50;99.90;;;;;;5065594;28;20182;-50
2021/03/25 02:33:50;;;;;;;71.00;36.00;;;5.60;99.90;;;;;;5063307;28;20169;-49
2021/03/25 02:36:35;;;;;;;67.13;34.87;;;5.60;99.90;;;;;;5047664;28;20182;-50
2021/03/25 02:39:08;;;;;;;72.33;36.07;;;5.70;99.90;;;;;;5056042;28;20232;-50
2021/03/25 02:41:39;;;;;;;69.47;35.93;;;5.80;99.90;;;;;;5053341;28;20183;-52
2021/03/25 02:44:18;;;;;;;78.83;37.27;;;5.80;99.90;;;;;;5064605;28;20682;-47
2021/03/25 02:46:53;;;;;;;66.83;33.63;;;5.90;99.90;;;;;;5061539;28;20498;-51
2021/03/25 02:49:24;;;;;;;64.50;34.73;;;6.00;99.90;;;;;;5059645;28;20355;-54
2021/03/25 02:51:59;;;;;;;70.43;35.30;;;6.00;99.90;;;;;;5045466;28;20206;-50
2021/03/25 02:54:25;;;;;;;73.43;35.77;;;6.10;99.90;;;;;;5049008;28;20167;-53
2021/03/25 02:57:16;;;;;;;61.67;33.60;;;6.20;99.90;;;;;;5028464;28;20206;-50
2021/03/25 02:59:46;;;;;;;66.80;33.83;;;6.20;99.90;;;;;;5041931;28;20207;-52
2021/03/25 03:02:34;;;;;;;70.13;35.43;;;6.20;99.90;;;;;;5045543;28;20233;-51
2021/03/25 03:05:07;;;;;;;58.10;31.93;;;6.30;99.90;;;;;;5044333;28;20190;-55
2021/03/25 03:07:42;;;;;;;64.43;33.87;;;6.30;99.90;;;;;;5030627;28;20218;-51
2021/03/25 03:10:21;;;;;;;67.63;33.17;;;6.30;99.90;;;;;;5046083;28;20231;-52
2021/03/25 03:12:50;;;;;;;67.93;32.60;;;6.40;99.90;;;;;;5061098;28;20196;-50
2021/03/25 03:15:22;;;;;;;57.97;32.03;;;6.40;99.90;;;;;;5064205;28;20182;-54
2021/03/25 03:17:55;;;;;;;56.73;31.13;;;6.40;99.90;;;;;;5062101;28;20965;-46
2021/03/25 03:20:46;;;;;;;62.67;31.57;;;6.50;99.90;;;;;;5060280;28;20819;-55
2021/03/25 03:23:34;;;;;;;63.03;32.83;;;6.50;99.90;;;;;;5044370;28;20195;-47
2021/03/25 03:26:06;;;;;;;57.77;31.37;;;6.50;99.90;;;;;;5050386;28;20173;-48
2021/03/25 03:28:44;;;;;;;63.10;33.90;;;6.50;99.90;;;;;;5037636;28;20202;-48
2021/03/25 03:31:25;;;;;;;61.33;32.13;;;6.50;99.90;;;;;;5039667;28;20644;-53
2021/03/25 03:33:59;;;;;;;64.77;31.63;;;6.60;99.90;;;;;;5042268;28;20262;-52
2021/03/25 03:36:25;;;;;;;63.20;32.80;;;6.60;99.90;;;;;;5040599;28;20566;-48
2021/03/25 03:39:01;;;;;;;61.40;30.57;;;6.60;99.90;;;;;;5044617;28;20211;-52
2021/03/25 03:41:46;;;;;;;56.73;30.60;;;6.70;99.90;;;;;;5021111;28;20274;-53
2021/03/25 03:44:16;;;;;;;55.30;30.90;;;6.70;99.90;;;;;;5024495;28;20184;-54
2021/03/25 03:46:43;;;;;;;57.90;30.30;;;6.70;99.90;;;;;;5037724;28;20218;-48
2021/03/25 03:49:35;;;;;;;56.57;30.37;;;6.70;99.90;;;;;;5022904;28;20210;-50
2021/03/25 03:52:13;;;;;;;59.30;31.43;;;6.70;99.90;;;;;;5023998;28;20176;-51
2021/03/25 03:54:43;;;;;;;54.13;28.70;;;6.70;99.90;;;;;;5024413;28;20164;-49
2021/03/25 03:57:23;;;;;;;61.10;30.43;;;6.70;99.90;;;;;;5038131;28;20265;-53
2021/03/25 04:00:17;;;;;;;50.13;29.60;;;6.80;99.90;;;;;;5045855;28;20179;-47
2021/03/25 04:02:59;;;;;;;62.20;31.53;;;6.80;99.90;;;;;;5046120;28;20301;-51
2021/03/25 04:06:06;;;;;;;60.70;29.63;;;6.80;99.90;;;;;;5045399;28;20943;-51
2021/03/25 04:09:02;;;;;;;54.53;30.70;;;6.80;99.90;;;;;;5046245;28;20342;-52
2021/03/25 04:11:43;;;;;;;53.57;30.13;;;6.80;99.90;;;;;;5034326;28;20874;-49
2021/03/25 04:14:20;;;;;;;56.63;29.80;;;6.80;99.90;;;;;;5051311;28;20178;-51
2021/03/25 04:17:07;;;;;;;59.23;30.97;;;6.80;99.90;;;;;;5065506;28;20569;-49
2021/03/25 04:19:40;;;;;;;57.97;30.90;;;6.80;99.90;;;;;;5051154;28;20189;-52
2021/03/25 04:22:45;;;;;;;55.33;30.90;;;6.90;99.90;;;;;;5041649;28;20191;-47
2021/03/25 04:25:33;;;;;;;54.57;30.13;;;6.90;99.90;;;;;;5044479;28;20207;-53
2021/03/25 04:28:05;;;;;;;61.00;32.83;;;6.90;99.90;;;;;;5042133;28;20212;-46
2021/03/25 04:30:37;;;;;;;57.80;32.27;;;6.90;99.90;;;;;;5057195;28;20926;-46
2021/03/25 04:33:04;;;;;;;55.20;31.37;;;6.90;99.90;;;;;;5066032;28;20558;-49
2021/03/25 04:35:30;;;;;;;58.27;31.37;;;6.90;99.90;;;;;;5063046;28;20167;-53
2021/03/25 04:37:58;;;;;;;56.43;32.20;;;7.00;99.90;;;;;;5067838;28;20190;-50
2021/03/25 04:40:30;;;;;;;59.83;32.13;;;7.00;99.90;;;;;;5054851;28;20200;-52
2021/03/25 04:42:56;;;;;;;57.57;31.97;;;7.00;99.90;;;;;;5051747;28;20196;-49
2021/03/25 04:45:48;;;;;;;56.63;31.77;;;7.00;99.90;;;;;;5056344;28;20175;-54
2021/03/25 04:48:20;;;;;;;60.67;32.43;;;7.00;99.90;;;;;;5045029;28;20222;-53
2021/03/25 04:51:13;;;;;;;54.97;31.37;;;7.00;99.90;;;;;;5064444;28;20277;-50
2021/03/25 04:53:40;;;;;;;63.00;31.93;;;7.00;99.90;;;;;;5061213;28;20337;-52
2021/03/25 04:56:22;;;;;;;59.77;29.53;;;7.00;99.90;;;;;;5068106;28;20167;-53
2021/03/25 04:58:55;;;;;;;54.63;30.90;;;7.10;99.90;;;;;;5048735;28;20293;-46
2021/03/25 05:01:24;;;;;;;65.37;32.47;;;7.10;99.90;;;;;;5042989;28;20179;-51
2021/03/25 05:03:55;;;;;;;60.40;31.37;;;7.10;99.90;;;;;;5044612;28;20210;-48
2021/03/25 05:06:27;;;;;;;54.87;29.43;;;7.10;99.90;;;;;;5037545;28;20329;-53
2021/03/25 05:08:54;;;;;;;59.57;31.53;;;7.10;99.90;;;;;;5047078;28;20280;-47
2021/03/25 05:11:23;;;;;;;60.17;31.73;;;7.10;99.90;;;;;;5056463;28;20236;-49
2021/03/25 05:13:48;;;;;;;57.27;31.07;;;7.10;99.90;;;;;;5049824;28;20273;-52
2021/03/25 05:16:56;;;;;;;59.10;30.53;;;7.10;99.90;;;;;;5057184;28;20187;-52
2021/03/25 05:19:54;;;;;;;56.03;30.23;;;7.10;99.90;;;;;;5049922;28;20210;-53
2021/03/25 05:22:33;;;;;;;57.37;30.37;;;7.20;99.90;;;;;;5052327;28;20186;-51
2021/03/25 05:25:15;;;;;;;59.93;30.80;;;7.20;99.90;;;;;;5047760;28;20669;-50
2021/03/25 05:27:57;;;;;;;58.53;29.90;;;7.20;99.90;;;;;;5045450;28;20831;-54
2021/03/25 05:30:30;;;;;;;58.43;28.83;;;7.20;99.90;;;;;;5039333;28;20228;-53
2021/03/25 05:33:20;;;;;;;57.77;30.83;;;7.20;99.90;;;;;;5058790;28;20215;-50
2021/03/25 05:35:54;;;;;;;54.37;28.60;;;7.20;99.90;;;;;;5066433;28;20166;-46
2021/03/25 05:38:20;;;;;;;54.90;28.90;;;7.20;99.90;;;;;;5040846;28;20212;-52
2021/03/25 05:40:56;;;;;;;52.20;27.50;;;7.20;99.90;;;;;;5054529;28;20193;-50
2021/03/25 05:43:32;;;;;;;55.47;26.87;;;7.20;99.90;;;;;;5063989;28;20639;-54
2021/03/25 05:46:19;;;;;;;53.40;29.47;;;7.20;99.90;;;;;;5050393;28;20231;-51
2021/03/25 05:48:57;;;;;;;49.80;27.07;;;7.20;99.90;;;;;;5058068;28;20195;-51
2021/03/25 05:51:34;;;;;;;52.67;26.77;;;7.30;99.90;;;;;;5061240;28;20206;-50
2021/03/25 05:54:38;;;;;;;50.40;26.63;;;7.30;99.90;;;;;;5047985;28;20188;-49
2021/03/25 05:57:32;;;;;;;55.03;26.90;;;7.30;99.90;;;;;;5043712;28;20199;-51
2021/03/25 06:00:09;;;;;;;54.40;28.23;;;7.30;99.90;;;;;;5046715;28;20546;-52
2021/03/25 06:02:47;;;;;;;55.73;28.33;;;7.30;99.90;;;;;;5029855;28;20928;-50
2021/03/25 06:05:14;;;;;;;53.17;28.87;;;7.30;99.90;;;;;;5044588;28;20182;-52
2021/03/25 06:08:05;;;;;;;55.93;27.80;;;7.30;99.90;;;;;;5036234;28;20214;-50
2021/03/25 06:10:59;;;;;;;52.73;27.50;;;7.30;99.90;;;;;;5031049;28;20211;-50
2021/03/25 06:13:50;;;;;;;54.33;27.67;;;7.30;99.90;;;;;;5040992;28;20176;-54
2021/03/25 06:16:28;;;;;;;56.33;26.40;;;7.40;99.90;;;;;;5042245;28;20653;-56
2021/03/25 06:19:10;;;;;;;56.63;29.40;;;7.30;99.90;;;;;;5031366;28;20226;-50
2021/03/25 06:21:39;;;;;;;58.27;29.33;;;7.40;99.90;;;;;;5036440;28;20175;-48
2021/03/25 06:24:41;;;;;;;54.90;27.53;;;7.40;99.90;;;;;;5041363;28;20219;-54
2021/03/25 06:27:33;;;;;;;58.43;27.53;;;7.40;99.90;;;;;;5041537;28;20262;-53
2021/03/25 06:30:07;;;;;;;55.97;26.90;;;7.40;99.90;;;;;;5048794;28;20210;-53
2021/03/25 06:32:57;;;;;;;54.03;26.70;;;7.40;99.90;;;;;;5050402;28;20264;-50
2021/03/25 06:35:26;;;;;;;49.60;24.00;;;7.50;99.90;;;;;;5040977;28;20187;-53
2021/03/25 06:37:59;;;;;;;46.87;24.20;;;7.40;99.90;;;;;;5056103;28;20207;-53
2021/03/25 06:40:39;;;;;;;47.37;23.37;;;7.40;99.90;;;;;;5046900;28;20214;-51
2021/03/25 06:43:26;;;;;;;48.30;23.13;;;7.50;99.90;;;;;;5026285;28;20621;-51
2021/03/25 06:46:10;;;;;;;49.63;25.13;;;7.50;99.90;;;;;;5025379;28;20297;-55
2021/03/25 06:48:47;;;;;;;52.80;24.77;;;7.50;99.90;;;;;;5017318;28;21509;-52
2021/03/25 06:51:26;;;;;;;49.73;25.57;;;7.50;99.90;;;;;;5046025;28;20179;-53
2021/03/25 06:54:20;;;;;;;54.10;28.20;;;7.50;99.90;;;;;;5039455;28;20249;-46
2021/03/25 06:56:52;;;;;;;49.77;25.83;;;7.50;99.90;;;;;;5039240;28;20188;-47
2021/03/25 06:59:28;;;;;;;46.90;24.13;;;7.50;99.90;;;;;;5041497;28;20218;-52
2021/03/25 07:02:08;;;;;;;49.03;23.73;;;7.60;99.90;;;;;;5041774;28;20209;-46
2021/03/25 07:04:41;;;;;;;49.13;24.10;;;7.50;99.90;;;;;;5022737;28;21700;-49
2021/03/25 07:07:12;;;;;;;48.20;24.70;;;7.50;99.90;;;;;;5048708;28;20194;-48
2021/03/25 07:09:39;;;;;;;47.30;24.10;;;7.60;99.90;;;;;;5037728;28;20225;-53
2021/03/25 07:12:18;;;;;;;51.43;26.20;;;7.60;99.90;;;;;;5052141;28;20589;-51
2021/03/25 07:14:45;;;;;;;44.30;24.37;;;7.60;99.90;;;;;;5028232;28;20909;-51
2021/03/25 07:17:14;;;;;;;46.43;25.40;;;7.60;99.90;;;;;;5037301;28;20184;-54
2021/03/25 07:19:44;;;;;;;50.33;24.30;;;7.60;99.90;;;;;;5028491;28;20665;-51
2021/03/25 07:22:24;;;;;;;45.73;25.57;;;7.60;99.90;;;;;;5024816;28;20219;-51
2021/03/25 07:24:52;;;;;;;46.83;23.20;;;7.70;99.90;;;;;;5024566;28;20195;-51
2021/03/25 07:27:25;;;;;;;54.83;28.97;;;7.70;99.90;;;;;;5040160;28;20555;-54
2021/03/25 07:30:03;;;;;;;45.17;23.17;;;7.70;99.90;;;;;;5042009;28;20207;-50
2021/03/25 07:32:40;;;;;;;46.33;23.07;;;7.70;99.90;;;;;;5048285;28;20198;-55
2021/03/25 07:35:36;;;;;;;41.17;22.50;;;7.70;99.90;;;;;;5030928;28;20187;-53
2021/03/25 07:38:18;;;;;;;45.77;23.30;;;7.70;99.90;;;;;;5045113;28;20197;-52
2021/03/25 07:40:44;;;;;;;38.27;22.23;;;7.70;99.90;;;;;;5039343;28;20187;-54
2021/03/25 07:43:19;;;;;;;38.07;22.50;;;7.80;99.90;;;;;;5059734;28;20387;-55
2021/03/25 07:45:45;;;;;;;43.60;22.17;;;7.80;99.90;;;;;;5046520;28;20183;-53
2021/03/25 07:48:22;;;;;;;42.53;23.43;;;7.80;99.90;;;;;;5047862;28;20888;-52
2021/03/25 07:50:50;;;;;;;45.17;23.27;;;7.70;99.90;;;;;;5025702;28;20280;-52
2021/03/25 07:53:20;;;;;;;37.37;22.83;;;7.80;99.90;;;;;;5043223;28;20182;-56
2021/03/25 07:55:45;;;;;;;43.57;23.07;;;7.90;99.90;;;;;;5033085;28;20179;-56
2021/03/25 07:58:37;;;;;;;41.40;21.50;;;7.90;99.90;;;;;;5032209;28;20206;-55
2021/03/25 08:01:14;;;;;;;37.90;19.77;;;7.90;99.90;;;;;;5041087;28;20184;-53
2021/03/25 08:03:51;;;;;;;37.03;21.27;;;7.90;99.90;;;;;;5048426;28;20191;-54
2021/03/25 08:06:23;;;;;;;42.47;21.43;;;7.90;99.90;;;;;;5030041;28;20179;-52
2021/03/25 08:09:10;;;;;;;41.37;22.80;;;7.90;99.90;;;;;;5048226;28;20250;-54
2021/03/25 08:11:56;;;;;;;43.57;23.27;;;8.00;99.90;;;;;;5051943;28;20270;-55
2021/03/25 08:14:27;;;;;;;40.17;22.93;;;8.10;99.90;;;;;;5032813;28;20184;-54
2021/03/25 08:16:58;;;;;;;45.57;23.53;;;8.10;99.90;;;;;;5047627;28;20548;-54
2021/03/25 08:19:36;;;;;;;43.27;23.23;;;8.20;99.90;;;;;;5039041;28;20565;-54
2021/03/25 08:22:18;;;;;;;39.83;22.27;;;8.30;99.90;;;;;;5033160;28;20213;-51
2021/03/25 08:25:21;;;;;;;42.50;22.80;;;8.40;99.90;;;;;;5039025;28;20229;-55
2021/03/25 08:28:05;;;;;;;43.83;23.20;;;8.50;99.90;;;;;;5043334;28;20272;-53
2021/03/25 08:30:44;;;;;;;44.03;22.00;;;8.50;99.90;;;;;;5039326;28;20435;-47
2021/03/25 08:33:14;;;;;;;39.33;21.37;;;8.40;99.90;;;;;;5040327;28;20201;-54
2021/03/25 08:36:18;;;;;;;38.53;20.67;;;8.30;99.90;;;;;;5063170;28;20578;-51
2021/03/25 08:38:59;;;;;;;41.03;21.57;;;8.30;99.90;;;;;;5051347;28;20234;-49
2021/03/25 08:41:50;;;;;;;43.40;24.20;;;8.30;99.90;;;;;;5052969;28;20183;-47
2021/03/25 08:44:36;;;;;;;46.43;24.37;;;8.40;99.90;;;;;;5036509;28;20199;-48
2021/03/25 08:47:07;;;;;;;38.33;22.67;;;8.50;99.90;;;;;;5051952;28;20206;-52
2021/03/25 08:49:51;;;;;;;42.83;22.87;;;8.70;99.90;;;;;;5048304;28;20191;-46
2021/03/25 08:52:21;;;;;;;38.37;21.57;;;8.90;99.90;;;;;;5023234;28;20191;-46
2021/03/25 08:54:51;;;;;;;41.10;21.47;;;8.90;99.90;;;;;;5055572;28;20526;-49
2021/03/25 08:57:25;;;;;;;42.23;22.20;;;8.90;99.90;;;;;;5044955;28;20440;-51
2021/03/25 09:00:15;;;;;;;39.10;21.80;;;9.00;99.90;;;;;;5039887;28;20195;-51
2021/03/25 09:02:52;;;;;;;39.60;22.53;;;9.00;99.90;;;;;;5045119;28;20191;-51
2021/03/25 09:05:33;;;;;;;42.83;22.80;;;9.10;99.90;;;;;;5038366;28;20270;-48
2021/03/25 09:08:00;;;;;;;38.83;22.50;;;9.10;99.90;;;;;;5042337;28;20260;-51
2021/03/25 09:10:41;;;;;;;43.20;23.70;;;9.00;99.90;;;;;;5041795;28;20294;-49
2021/03/25 09:13:22;;;;;;;39.27;22.00;;;9.10;99.90;;;;;;5047740;28;20194;-51
2021/03/25 09:15:48;;;;;;;41.47;22.77;;;9.10;99.90;;;;;;5045615;28;20543;-53
2021/03/25 09:18:17;;;;;;;39.53;22.33;;;9.20;99.90;;;;;;5047841;28;20244;-54
2021/03/25 09:20:48;;;;;;;41.57;22.67;;;9.20;99.90;;;;;;5052198;28;20180;-54
2021/03/25 09:23:29;;;;;;;48.57;27.10;;;9.30;99.90;;;;;;5031025;28;20188;-52
2021/03/25 09:25:56;;;;;;;41.57;24.07;;;9.30;99.90;;;;;;5053456;28;20183;-48
2021/03/25 09:28:22;;;;;;;46.87;26.80;;;9.30;99.90;;;;;;5037670;28;20230;-50
2021/03/25 09:31:08;;;;;;;54.67;29.57;;;9.40;99.90;;;;;;5039883;28;20712;-52
2021/03/25 09:33:44;;;;;;;53.67;28.53;;;9.40;99.90;;;;;;5043336;28;20266;-50
2021/03/25 09:36:19;;;;;;;56.40;29.97;;;9.50;99.90;;;;;;5037981;28;20191;-54
2021/03/25 09:39:08;;;;;;;55.77;29.40;;;9.60;99.90;;;;;;5045599;28;20742;-52
2021/03/25 09:41:34;;;;;;;49.47;27.00;;;9.50;99.90;;;;;;5044243;28;20186;-49
2021/03/25 09:44:09;;;;;;;46.10;26.23;;;9.60;99.90;;;;;;5041490;28;20194;-50
2021/03/25 09:46:46;;;;;;;48.33;26.43;;;9.60;99.90;;;;;;5038868;28;20248;-55
2021/03/25 09:49:33;;;;;;;46.27;25.03;;;9.70;99.90;;;;;;5038685;28;20753;-53
2021/03/25 09:52:11;;;;;;;34.90;20.90;;;9.80;99.90;;;;;;5043036;28;20183;-54
2021/03/25 09:54:39;;;;;;;36.93;20.80;;;10.00;99.90;;;;;;5053371;28;20528;-52
2021/03/25 09:57:29;;;;;;;34.23;21.23;;;10.10;99.90;;;;;;5036743;28;20240;-53
2021/03/25 10:00:00;;;;;;;38.03;21.20;;;10.20;99.90;;;;;;5044759;28;20651;-51
2021/03/25 10:02:40;;;;;;;34.17;20.80;;;10.30;99.90;;;;;;5037483;28;20191;-48
2021/03/25 10:05:21;;;;;;;40.27;22.53;;;10.30;99.90;;;;;;5039848;28;20182;-55
2021/03/25 10:07:48;;;;;;;30.97;19.13;;;10.50;99.90;;;;;;5045639;28;20913;-51
2021/03/25 10:10:23;;;;;;;32.80;17.33;;;10.50;99.90;;;;;;5032787;28;20686;-50
2021/03/25 10:12:52;;;;;;;24.43;17.07;;;10.60;99.90;;;;;;5054829;28;20201;-54
2021/03/25 10:15:41;;;;;;;29.63;18.13;;;10.60;99.90;;;;;;5036909;28;20981;-55
2021/03/25 10:18:14;;;;;;;26.97;16.63;;;10.60;99.90;;;;;;5043523;28;20203;-54
2021/03/25 10:20:57;;;;;;;28.30;16.83;;;10.80;99.90;;;;;;5044300;28;20539;-50
2021/03/25 10:23:31;;;;;;;27.37;16.20;;;10.90;99.90;;;;;;5038485;28;20183;-54
2021/03/25 10:26:25;;;;;;;23.93;14.90;;;10.90;99.90;;;;;;5054197;28;20195;-53
2021/03/25 10:29:13;;;;;;;25.83;15.47;;;10.90;99.90;;;;;;5044275;28;20215;-53
2021/03/25 10:31:43;;;;;;;21.17;14.03;;;10.90;99.90;;;;;;5061827;28;20175;-53
2021/03/25 10:34:20;;;;;;;24.93;14.73;;;11.00;99.90;;;;;;5038592;28;20221;-53
2021/03/25 10:36:54;;;;;;;23.27;14.63;;;11.10;99.90;;;;;;5044854;28;20236;-51
2021/03/25 10:39:24;;;;;;;22.20;14.17;;;11.20;99.90;;;;;;5040813;28;20833;-50
2021/03/25 10:41:51;;;;;;;22.40;14.07;;;11.40;99.90;;;;;;5040017;28;20598;-48
2021/03/25 10:44:18;;;;;;;20.37;13.97;;;11.40;99.90;;;;;;5045703;28;20183;-52
2021/03/25 10:46:43;;;;;;;28.40;15.40;;;11.50;99.90;;;;;;5043830;28;20196;-52
2021/03/25 10:49:16;;;;;;;23.20;14.13;;;11.60;99.90;;;;;;5028506;28;20709;-53
2021/03/25 10:51:43;;;;;;;22.07;13.97;;;11.70;99.90;;;;;;5039841;28;20179;-54
2021/03/25 10:54:37;;;;;;;24.70;13.60;;;11.80;99.90;;;;;;5035553;28;20237;-48
2021/03/25 10:57:25;;;;;;;20.63;13.47;;;11.90;99.90;;;;;;5031118;28;21784;-47
2021/03/25 11:00:01;;;;;;;18.83;12.97;;;12.00;99.90;;;;;;5034127;28;20195;-49
2021/03/25 11:02:37;;;;;;;20.03;12.97;;;12.00;99.90;;;;;;5040589;28;20269;-54
2021/03/25 11:05:23;;;;;;;20.73;12.63;;;11.90;99.90;;;;;;5036457;28;20222;-49
2021/03/25 11:08:00;;;;;;;15.50;11.30;;;11.90;99.90;;;;;;5035078;28;20235;-47
2021/03/25 11:10:29;;;;;;;15.30;11.73;;;12.10;99.90;;;;;;5044076;28;20217;-52
2021/03/25 11:13:05;;;;;;;17.70;10.80;;;12.20;99.90;;;;;;5031331;28;20198;-47
2021/03/25 11:15:34;;;;;;;17.77;10.97;;;12.20;99.90;;;;;;5041707;28;20187;-54
2021/03/25 11:18:15;;;;;;;16.37;10.67;;;12.20;99.90;;;;;;5040531;28;20190;-50
2021/03/25 11:20:41;;;;;;;17.40;11.70;;;12.20;99.90;;;;;;5034283;28;20203;-53
2021/03/25 11:23:12;;;;;;;23.37;10.67;;;12.10;99.90;;;;;;5038829;28;20192;-48
2021/03/25 11:25:38;;;;;;;16.53;10.77;;;12.20;99.90;;;;;;5036083;28;20192;-54
2021/03/25 11:28:16;;;;;;;16.40;11.13;;;12.10;99.90;;;;;;5033186;28;20214;-46
2021/03/25 11:30:46;;;;;;;15.17;10.67;;;12.10;99.90;;;;;;5045151;28;20206;-55
2021/03/25 11:33:22;;;;;;;14.67;10.20;;;12.20;99.90;;;;;;5042906;28;20514;-47
2021/03/25 11:35:49;;;;;;;15.27;9.73;;;12.20;99.90;;;;;;5034398;28;20950;-50
2021/03/25 11:38:22;;;;;;;13.77;9.40;;;12.40;99.90;;;;;;5044001;28;20278;-53
2021/03/25 11:40:48;;;;;;;15.13;10.97;;;12.40;99.90;;;;;;5031363;28;20198;-53
2021/03/25 11:43:17;;;;;;;16.43;10.87;;;12.40;99.90;;;;;;5044050;28;20184;-51
2021/03/25 11:45:51;;;;;;;16.33;10.93;;;12.40;99.90;;;;;;5031426;28;20201;-52
2021/03/25 11:48:19;;;;;;;20.73;11.83;;;12.40;99.90;;;;;;5057032;28;20222;-51
2021/03/25 11:50:48;;;;;;;16.50;12.00;;;12.50;99.90;;;;;;5053063;28;20206;-52
2021/03/25 11:53:39;;;;;;;14.97;10.57;;;12.60;99.90;;;;;;5044576;28;20645;-50
2021/03/25 11:56:07;;;;;;;19.20;12.47;;;12.90;99.90;;;;;;5038015;28;20196;-46
2021/03/25 11:58:32;;;;;;;16.80;11.40;;;13.00;99.90;;;;;;5034549;28;20191;-56
2021/03/25 12:01:19;;;;;;;16.57;10.40;;;13.10;99.90;;;;;;5043270;28;20252;-53
2021/03/25 12:03:47;;;;;;;13.53;10.13;;;13.10;99.90;;;;;;5036354;28;20862;-48
2021/03/25 12:06:17;;;;;;;15.67;9.73;;;13.10;99.90;;;;;;5039827;28;20188;-48
2021/03/25 12:08:42;;;;;;;14.10;11.13;;;13.30;99.90;;;;;;5044332;28;20203;-52
2021/03/25 12:11:10;;;;;;;16.03;11.40;;;13.20;99.90;;;;;;5040203;28;20214;-50
2021/03/25 12:13:37;;;;;;;15.00;11.43;;;13.10;99.90;;;;;;5040475;28;20184;-51
2021/03/25 12:16:03;;;;;;;18.53;11.83;;;13.00;99.90;;;;;;5040637;28;20729;-49
2021/03/25 12:18:37;;;;;;;18.17;12.20;;;12.90;99.90;;;;;;5048315;28;20203;-49
2021/03/25 12:21:07;;;;;;;21.37;11.90;;;12.80;99.90;;;;;;5045509;28;20190;-47
2021/03/25 12:23:35;;;;;;;23.83;12.73;;;12.80;99.90;;;;;;5038484;28;20221;-53
2021/03/25 12:26:04;;;;;;;19.20;12.63;;;12.70;99.90;;;;;;5035205;28;20590;-47
2021/03/25 12:28:31;;;;;;;19.70;12.20;;;12.70;99.90;;;;;;5043949;28;20302;-54
2021/03/25 12:30:57;;;;;;;22.10;11.07;;;12.70;99.90;;;;;;5045065;28;20911;-49
2021/03/25 12:33:33;;;;;;;16.33;11.30;;;12.70;99.90;;;;;;5042387;28;20182;-53
2021/03/25 12:36:00;;;;;;;15.13;10.63;;;12.80;99.90;;;;;;5033706;28;20233;-49
2021/03/25 12:38:27;;;;;;;17.37;10.57;;;13.00;99.90;;;;;;5040701;28;20203;-55
2021/03/25 12:40:53;;;;;;;15.93;10.40;;;13.10;99.90;;;;;;5037027;28;20195;-52
2021/03/25 12:43:22;;;;;;;16.57;10.93;;;13.00;99.90;;;;;;5045737;28;20523;-52
2021/03/25 12:45:51;;;;;;;19.13;11.47;;;13.10;99.90;;;;;;5029697;28;20978;-49
2021/03/25 12:48:22;;;;;;;17.87;11.77;;;13.10;99.90;;;;;;5055555;28;20253;-48
2021/03/25 12:50:50;;;;;;;16.37;11.67;;;13.20;99.90;;;;;;5034227;28;20261;-52
2021/03/25 12:53:16;;;;;;;12.77;9.87;;;13.40;99.90;;;;;;5037203;28;20210;-46
2021/03/25 12:55:42;;;;;;;13.87;10.87;;;13.50;99.90;;;;;;5040819;28;20582;-49
2021/03/25 12:58:17;;;;;;;13.03;10.23;;;13.60;99.90;;;;;;5035130;28;20234;-51
2021/03/25 13:00:43;;;;;;;18.50;10.47;;;13.50;99.90;;;;;;5053832;28;20226;-47
2021/03/25 13:03:08;;;;;;;13.00;9.53;;;13.40;99.90;;;;;;5039586;28;20688;-49
2021/03/25 13:05:34;;;;;;;13.53;8.40;;;13.20;99.90;;;;;;5052174;28;21016;-51
2021/03/25 13:08:00;;;;;;;14.07;9.13;;;13.20;99.90;;;;;;5049836;28;20598;-51
2021/03/25 13:10:28;;;;;;;13.03;8.50;;;13.10;99.90;;;;;;5047505;28;20230;-50
2021/03/25 13:12:55;;;;;;;13.90;8.87;;;13.20;99.90;;;;;;5043814;28;20282;-48
2021/03/25 13:15:22;;;;;;;14.97;8.30;;;13.40;99.90;;;;;;5046758;28;20171;-48
2021/03/25 13:17:48;;;;;;;12.53;8.23;;;13.70;99.90;;;;;;5041826;28;20202;-50